1857 NOT_NAMED (1857355S06086)


IBTrACS version v04r00. Visit IBTrACS website for data access.
Please direct all questions to the IBTrACS Q and A forum

Storm track - Intensity - Wind Radii - Intensity Data - Source Data - All data

Summary Information

Storm ID 1857355S06086
Start Dec 21 06Z
End Dec 28 06Z
ATCF IDs
Track status Best track data.

Storm track plot

Map of storm track

Intensity plots

No Intensity information for this storm


Radial wind information

No radial wind information for this storm


Position and Intensity Table

BASIN ISO_TIME_________ NATURE LAT LON
degrees north degrees east
SI 1857-12-21 06:00:00 NR -6.40 85.90
SI 09:00:00 NR -6.43 85.82
SI 12:00:00 NR -6.47 85.74
SI 15:00:00 NR -6.51 85.64
SI 18:00:00 NR -6.55 85.54
SI 21:00:00 NR -6.62 85.41
SI 1857-12-22 00:00:00 NR -6.69 85.27
SI 03:00:00 NR -6.79 85.10
SI 06:00:00 NR -6.90 84.90
SI 09:00:00 NR -7.04 84.67
SI 12:00:00 NR -7.19 84.41
SI 15:00:00 NR -7.37 84.12
SI 18:00:00 NR -7.55 83.83
SI 21:00:00 NR -7.74 83.52
SI 1857-12-23 00:00:00 NR -7.93 83.21
SI 03:00:00 NR -8.12 82.90
SI 06:00:00 NR -8.30 82.60
SI 09:00:00 NR -8.45 82.32
SI 12:00:00 NR -8.60 82.04
SI 15:00:00 NR -8.74 81.77
SI 18:00:00 NR -8.89 81.50
SI 21:00:00 NR -9.03 81.25
SI 1857-12-24 00:00:00 NR -9.18 81.02
SI 03:00:00 NR -9.34 80.80
SI 06:00:00 NR -9.50 80.60
SI 09:00:00 NR -9.68 80.40
SI 12:00:00 NR -9.88 80.23
SI 15:00:00 NR -10.07 80.07
SI 18:00:00 NR -10.28 79.93
SI 21:00:00 NR -10.48 79.81
SI 1857-12-25 00:00:00 NR -10.69 79.72
SI 03:00:00 NR -10.90 79.65
SI 06:00:00 NR -11.10 79.60
SI 09:00:00 NR -11.29 79.54
SI 12:00:00 NR -11.49 79.50
SI 15:00:00 NR -11.68 79.48
SI 18:00:00 NR -11.86 79.50
SI 21:00:00 NR -12.05 79.54
SI 1857-12-26 00:00:00 NR -12.24 79.62
SI 03:00:00 NR -12.42 79.74
SI 06:00:00 NR -12.60 79.90
SI 09:00:00 NR -12.80 80.13
SI 12:00:00 NR -13.00 80.40
SI 15:00:00 NR -13.20 80.71
SI 18:00:00 NR -13.38 81.04
SI 21:00:00 NR -13.56 81.37
SI 1857-12-27 00:00:00 NR -13.73 81.71
SI 03:00:00 NR -13.87 82.02
SI 06:00:00 NR -14.00 82.30
SI 09:00:00 NR -14.10 82.54
SI 12:00:00 NR -14.18 82.74
SI 15:00:00 NR -14.25 82.90
SI 18:00:00 NR -14.30 83.03
SI 21:00:00 NR -14.33 83.15
SI 1857-12-28 00:00:00 NR -14.36 83.24
SI 03:00:00 NR -14.38 83.32
SI 06:00:00 NR -14.40 83.40

Source Information

Agency Information
USA
TOKYO
CMA
HKO
NEWDELHI
REUNION WMO-Best-Tracks.txt:Line=137:xxxx857021
BOM
NADI
WELLINGTON
DS824
TD9636
TD9635
NEUMANN
MLC

All available IBTrACS Data

SEASON BASIN SUBBASIN ISO_TIME_________ NATURE LAT LON WMO AGENCY DIST2LAND LANDFALL IFLAG USA SSHS REUNION LAT REUNION LON REUNION TYPE REUNION TNUM STORM SPEED STORM DIR
Year degrees north degrees east km km 1 degrees north degrees east 1 kts degrees
1858 SI MM 1857-12-21 06:00:00 NR -6.40 85.90 1492 1492 _____O________ -1 -6.40 85.90 99 9.90 2 249
1858 SI MM 09:00:00 NR -6.43 85.82 1494 1494 _____P________ -1 -6.43 85.82 99 2 248
1858 SI MM 12:00:00 NR -6.47 85.74 1500 1496 _____P________ -1 -6.47 85.74 99 2 247
1858 SI MM 15:00:00 NR -6.51 85.64 1496 1492 _____P________ -1 -6.51 85.64 99 2 246
1858 SI MM 18:00:00 NR -6.55 85.54 1502 1498 _____P________ -1 -6.55 85.54 99 3 244
1858 SI MM 21:00:00 NR -6.62 85.41 1498 1498 _____P________ -1 -6.62 85.41 99 3 243
1858 SI MM 1857-12-22 00:00:00 NR -6.69 85.27 1505 1501 _____P________ -1 -6.69 85.27 99 4 241
1858 SI MM 03:00:00 NR -6.79 85.10 1508 1504 _____P________ -1 -6.79 85.10 99 4 240
1858 SI MM 06:00:00 NR -6.90 84.90 1511 1508 _____O________ -1 -6.90 84.90 99 9.90 5 240
1858 SI MM 09:00:00 NR -7.04 84.67 1515 1515 _____P________ -1 -7.04 84.67 99 6 239
1858 SI MM 12:00:00 NR -7.19 84.41 1527 1524 _____P________ -1 -7.19 84.41 99 6 239
1858 SI MM 15:00:00 NR -7.37 84.12 1540 1537 _____P________ -1 -7.37 84.12 99 7 238
1858 SI MM 18:00:00 NR -7.55 83.83 1543 1543 _____P________ -1 -7.55 83.83 99 7 238
1858 SI MM 21:00:00 NR -7.74 83.52 1557 1557 _____P________ -1 -7.74 83.52 99 7 238
1858 SI MM 1857-12-23 00:00:00 NR -7.93 83.21 1573 1573 _____P________ -1 -7.93 83.21 99 7 238
1858 SI MM 03:00:00 NR -8.12 82.90 1589 1587 _____P________ -1 -8.12 82.90 99 7 238
1858 SI MM 06:00:00 NR -8.30 82.60 1606 1605 _____O________ -1 -8.30 82.60 99 9.90 7 240
1858 SI MM 09:00:00 NR -8.45 82.32 1624 1622 _____P________ -1 -8.45 82.32 99 6 242
1858 SI MM 12:00:00 NR -8.60 82.04 1632 1631 _____P________ -1 -8.60 82.04 99 6 242
1858 SI MM 15:00:00 NR -8.74 81.77 1641 1641 _____P________ -1 -8.74 81.77 99 6 242
1858 SI MM 18:00:00 NR -8.89 81.50 1661 1660 _____P________ -1 -8.89 81.50 99 6 240
1858 SI MM 21:00:00 NR -9.03 81.25 1671 1670 _____P________ -1 -9.03 81.25 99 6 238
1858 SI MM 1857-12-24 00:00:00 NR -9.18 81.02 1692 1692 _____P________ -1 -9.18 81.02 99 5 236
1858 SI MM 03:00:00 NR -9.34 80.80 1703 1703 _____P________ -1 -9.34 80.80 99 5 232
1858 SI MM 06:00:00 NR -9.50 80.60 1725 1725 _____O________ -1 -9.50 80.60 99 9.90 5 228
1858 SI MM 09:00:00 NR -9.68 80.40 1748 1748 _____P________ -1 -9.68 80.40 99 5 225
1858 SI MM 12:00:00 NR -9.88 80.23 1770 1770 _____P________ -1 -9.88 80.23 99 5 220
1858 SI MM 15:00:00 NR -10.07 80.07 1793 1793 _____P________ -1 -10.07 80.07 99 5 216
1858 SI MM 18:00:00 NR -10.28 79.93 1816 1816 _____P________ -1 -10.28 79.93 99 5 211
1858 SI MM 21:00:00 NR -10.48 79.81 1839 1839 _____P________ -1 -10.48 79.81 99 5 207
1858 SI MM 1857-12-25 00:00:00 NR -10.69 79.72 1862 1862 _____P________ -1 -10.69 79.72 99 4 201
1858 SI MM 03:00:00 NR -10.90 79.65 1885 1885 _____P________ -1 -10.90 79.65 99 4 195
1858 SI MM 06:00:00 NR -11.10 79.60 reunion 1908 1908 _____O________ -1 -11.10 79.60 99 9.90 4 195
1858 SI MM 09:00:00 NR -11.29 79.54 1931 1931 _____P________ -1 -11.29 79.54 99 4 195
1858 SI MM 12:00:00 NR -11.49 79.50 1953 1953 _____P________ -1 -11.49 79.50 99 4 188
1858 SI MM 15:00:00 NR -11.68 79.48 1975 1975 _____P________ -1 -11.68 79.48 99 4 0
1858 SI MM 18:00:00 NR -11.86 79.50 1998 1998 _____P________ -1 -11.86 79.50 99 4 171
1858 SI MM 21:00:00 NR -12.05 79.54 2020 2019 _____P________ -1 -12.05 79.54 99 4 161
1858 SI MM 1857-12-26 00:00:00 NR -12.24 79.62 2030 2030 _____P________ -1 -12.24 79.62 99 4 152
1858 SI MM 03:00:00 NR -12.42 79.74 2052 2052 _____P________ -1 -12.42 79.74 99 5 143
1858 SI MM 06:00:00 NR -12.60 79.90 reunion 2074 2074 _____O________ -1 -12.60 79.90 99 9.90 5 135
1858 SI MM 09:00:00 NR -12.80 80.13 2095 2095 _____P________ -1 -12.80 80.13 99 6 129
1858 SI MM 12:00:00 NR -13.00 80.40 2117 2117 _____P________ -1 -13.00 80.40 99 7 125
1858 SI MM 15:00:00 NR -13.20 80.71 2139 2139 _____P________ -1 -13.20 80.71 99 7 122
1858 SI MM 18:00:00 NR -13.38 81.04 2162 2162 _____P________ -1 -13.38 81.04 99 7 120
1858 SI MM 21:00:00 NR -13.56 81.37 2186 2186 _____P________ -1 -13.56 81.37 99 7 118
1858 SI MM 1857-12-27 00:00:00 NR -13.73 81.71 2199 2199 _____P________ -1 -13.73 81.71 99 7 116
1858 SI MM 03:00:00 NR -13.87 82.02 2223 2223 _____P________ -1 -13.87 82.02 99 6 115
1858 SI MM 06:00:00 NR -14.00 82.30 2237 2237 _____O________ -1 -14.00 82.30 99 9.90 6 114
1858 SI MM 09:00:00 NR -14.10 82.54 2250 2250 _____P________ -1 -14.10 82.54 99 5 114
1858 SI MM 12:00:00 NR -14.18 82.74 2263 2248 _____P________ -1 -14.18 82.74 99 4 113
1858 SI MM 15:00:00 NR -14.25 82.90 2248 2247 _____P________ -1 -14.25 82.90 99 3 111
1858 SI MM 18:00:00 NR -14.30 83.03 2247 2238 _____P________ -1 -14.30 83.03 99 3 110
1858 SI MM 21:00:00 NR -14.33 83.15 2238 2230 _____P________ -1 -14.33 83.15 99 2 108
1858 SI MM 1857-12-28 00:00:00 NR -14.36 83.24 2236 2228 _____P________ -1 -14.36 83.24 99 2 106
1858 SI MM 03:00:00 NR -14.38 83.32 2228 2219 _____P________ -1 -14.38 83.32 99 2 105
1858 SI MM 06:00:00 NR -14.40 83.40 2219 _____O________ -1 -14.40 83.40 99 9.90 2 104